Kenbridge, Virginia
Current Conditions -  °F | °C
As of 1:55 AM on Friday 28 Nov 2014 (Local Time) from KW31 Reporting Station
Clear Clear  
Wind Chill: -24°   Ceiling: Unl
Heat Index: -24°   Visibility: 10mi
Dew Point: -30°   Wind: 0mph
Humidity: 76%   Direction: NA
Pressure: 30.22"   Gusts: NA
Location:  36.96°N, 78.13°W
Report Text: KW31 280655Z AUTO 00000KT 10SM CLR M31/M34 A3022 RMK AO1 T13131343
Loading
Personal Weather Stations






























Interactive Weather Map New forecast layout! Learn more

10-Day Weather Forecast

Advertisements
Track Severe Weather on mobile